Horta Airport Horta PT
ICAO: LPHR
IATA: HOR
Category: Medium
Scheduled Services: Yes

Elevation: 118 ft
TransAlt. 5000 ft.

Airport Communications:
APP:119.7
TWR:118

LPHR Zoom In..

Runways:

(A) RW 10 length 5233 ft width 148 ft
---- / hdg 102

(B) RW 28 length 5233 ft width 148 ft
---- / hdg 282

Location; LPHR
Day. 14 / Time. 14.00 Zulu
* QNH: 1024
* Temperature: 25° c. 77°f.
* Wind from: 220° Speed 06 kn.
Dewpoint: 22° c.
Visibility: 10 km or more.
Clouds: Few 1200 ft.
Clouds: Few 1800 ft.

LPHR 141400Z 22006KT 9999 FEW012 FEW018CB 25/22 Q1024


Wind From 220°
Speed 06 kn.

 
 
jpsmedia.com for Web Design worldairports.se 2018   terms of use